createdAt,value
2022-11-05T00:03:37.431Z,13.10
2022-11-05T00:08:48.981Z,14.83
2022-11-05T00:13:58.131Z,15.17
2022-11-05T00:19:06.599Z,15.20
2022-11-05T00:24:23.217Z,16.63
2022-11-05T00:29:16.767Z,15.80
2022-11-05T00:34:09.538Z,16.27
2022-11-05T00:39:03.529Z,17.13
2022-11-05T00:44:22.203Z,17.40
2022-11-05T00:49:32.660Z,16.77
2022-11-05T00:54:26.588Z,17.23
2022-11-05T00:59:19.193Z,16.70
2022-11-05T01:04:12.002Z,15.97
2022-11-05T01:09:04.677Z,15.50
2022-11-05T01:13:58.589Z,14.93
2022-11-05T01:18:51.208Z,14.10
2022-11-05T01:23:44.045Z,13.77
2022-11-05T01:28:36.872Z,13.60
2022-11-05T01:33:30.875Z,14.10
2022-11-05T01:38:23.462Z,13.70
2022-11-05T01:43:17.519Z,13.20
2022-11-05T01:48:13.828Z,12.47
2022-11-05T01:53:11.225Z,13.90
2022-11-05T01:58:04.484Z,13.70
2022-11-05T02:02:57.177Z,12.97
2022-11-05T02:07:50.060Z,13.50
2022-11-05T02:12:45.563Z,13.13
2022-11-05T02:17:44.723Z,12.83
2022-11-05T02:22:45.834Z,14.03
2022-11-05T02:27:59.282Z,12.77
2022-11-05T02:33:02.048Z,13.13
2022-11-05T02:37:55.965Z,13.37
2022-11-05T02:42:55.624Z,13.63
2022-11-05T02:47:51.305Z,13.03
2022-11-05T02:52:50.522Z,12.80
2022-11-05T02:57:45.048Z,12.93
2022-11-05T03:02:37.839Z,13.37
2022-11-05T03:07:40.509Z,12.53
2022-11-05T03:12:40.925Z,12.83
2022-11-05T03:17:37.878Z,14.27
2022-11-05T03:22:33.871Z,14.30
2022-11-05T03:27:28.202Z,13.83
2022-11-05T03:32:28.252Z,13.70
2022-11-05T03:37:22.623Z,14.90
2022-11-05T03:42:16.955Z,15.20
2022-11-05T03:47:12.334Z,14.73
2022-11-05T03:52:08.402Z,15.70
2022-11-05T03:57:04.347Z,15.23
2022-11-05T04:01:57.508Z,15.00
2022-11-05T04:07:07.561Z,15.23
2022-11-05T04:12:19.073Z,18.23
2022-11-05T04:17:11.645Z,17.90
2022-11-05T04:22:21.794Z,18.17
2022-11-05T04:27:15.698Z,18.97
2022-11-05T04:32:08.288Z,21.67
2022-11-05T04:37:00.857Z,22.23
2022-11-05T04:41:53.455Z,22.60
2022-11-05T04:46:47.382Z,22.30
2022-11-05T04:51:39.953Z,24.10
2022-11-05T04:56:32.628Z,23.57
2022-11-05T05:01:26.280Z,23.10
2022-11-05T05:06:21.130Z,24.50
2022-11-05T05:11:14.950Z,24.77
2022-11-05T05:16:08.152Z,27.13
2022-11-05T05:21:18.526Z,26.10
2022-11-05T05:26:12.477Z,25.87
2022-11-05T05:31:05.080Z,27.33
2022-11-05T05:35:58.311Z,27.30
2022-11-05T05:40:50.949Z,23.80
2022-11-05T05:45:45.027Z,24.17
2022-11-05T05:50:37.635Z,22.73
2022-11-05T05:55:32.875Z,19.23
2022-11-05T06:00:25.463Z,16.20
2022-11-05T06:05:19.401Z,17.90
2022-11-05T06:10:12.067Z,15.80
2022-11-05T06:15:04.988Z,17.60
2022-11-05T06:19:57.599Z,17.20
2022-11-05T06:24:51.529Z,17.87
2022-11-05T06:29:44.121Z,17.30
2022-11-05T06:34:37.847Z,17.03
2022-11-05T06:39:30.415Z,17.77
2022-11-05T06:44:24.353Z,16.80
2022-11-05T06:49:16.926Z,13.80
2022-11-05T06:54:09.577Z,14.60
2022-11-05T06:59:02.303Z,15.00
2022-11-05T07:03:56.211Z,13.40
2022-11-05T07:08:48.839Z,13.50
2022-11-05T07:13:41.426Z,13.00
2022-11-05T07:18:34.002Z,12.00
2022-11-05T07:23:27.977Z,12.40
2022-11-05T07:28:20.571Z,13.40
2022-11-05T07:33:13.646Z,13.90
2022-11-05T07:38:06.617Z,11.93
2022-11-05T07:43:01.289Z,11.77
2022-11-05T07:47:54.523Z,11.30
2022-11-05T07:52:48.035Z,10.50
2022-11-05T07:57:44.022Z,13.20
2022-11-05T08:02:38.141Z,13.87
2022-11-05T08:07:30.857Z,17.43
2022-11-05T08:12:23.714Z,16.10
2022-11-05T08:17:18.544Z,16.70
2022-11-05T08:22:12.593Z,16.93
2022-11-05T08:27:05.141Z,17.97
2022-11-05T08:31:57.744Z,21.10
2022-11-05T08:36:50.337Z,19.37
2022-11-05T08:41:44.295Z,18.83
2022-11-05T08:46:41.444Z,19.20
2022-11-05T08:51:34.347Z,18.40
2022-11-05T08:56:26.936Z,18.70
2022-11-05T09:01:20.973Z,18.00
2022-11-05T09:06:14.534Z,18.67
2022-11-05T09:11:07.124Z,18.17
2022-11-05T09:16:00.173Z,17.23
2022-11-05T09:20:54.202Z,15.90
2022-11-05T09:25:47.173Z,16.63
2022-11-05T09:30:43.396Z,15.80
2022-11-05T09:35:35.990Z,16.80
2022-11-05T09:40:33.191Z,14.97
2022-11-05T09:45:28.068Z,16.10
2022-11-05T09:50:21.502Z,14.67
2022-11-05T09:55:19.916Z,14.80
2022-11-05T10:00:16.709Z,14.10
2022-11-05T10:05:12.494Z,13.57
2022-11-05T10:10:07.195Z,13.53
2022-11-05T10:15:06.254Z,12.60
2022-11-05T10:20:04.252Z,11.20
2022-11-05T10:24:57.064Z,13.17
2022-11-05T10:29:50.093Z,11.23
2022-11-05T10:34:43.100Z,9.47
2022-11-05T10:39:37.461Z,9.93
2022-11-05T10:44:33.297Z,10.03
2022-11-05T10:49:32.546Z,9.60
2022-11-05T10:54:27.574Z,10.70
2022-11-05T10:59:23.183Z,10.40
2022-11-05T11:04:17.904Z,10.70
2022-11-05T11:09:20.380Z,9.70
2022-11-05T11:14:20.940Z,9.67
2022-11-05T11:19:26.443Z,9.30
2022-11-05T11:24:23.074Z,10.93
2022-11-05T11:29:19.850Z,10.27
2022-11-05T11:34:17.567Z,11.30
2022-11-05T11:39:16.002Z,9.97
2022-11-05T11:44:09.443Z,11.20
2022-11-05T11:49:02.096Z,11.10
2022-11-05T11:53:57.281Z,12.60
2022-11-05T11:58:52.378Z,9.60
2022-11-05T12:03:48.383Z,9.43
2022-11-05T12:08:46.511Z,11.07
2022-11-05T12:13:48.652Z,14.90
2022-11-05T12:18:46.462Z,9.50
2022-11-05T12:23:45.229Z,9.20
2022-11-05T12:29:17.366Z,9.40
2022-11-05T12:34:15.926Z,8.30
2022-11-05T12:39:22.194Z,8.57
2022-11-05T12:44:18.619Z,10.83
2022-11-05T12:49:23.457Z,7.50
2022-11-05T12:54:21.518Z,10.70
2022-11-05T12:59:17.879Z,9.20
2022-11-05T13:04:14.513Z,10.13
2022-11-05T13:09:14.217Z,7.80
2022-11-05T13:14:09.895Z,5.70
2022-11-05T13:19:06.091Z,5.60
2022-11-05T13:24:02.350Z,5.23
2022-11-05T13:28:58.269Z,6.03
2022-11-05T13:33:52.181Z,6.00
2022-11-05T13:39:01.287Z,5.70
2022-11-05T13:44:08.388Z,6.60
2022-11-05T13:49:25.066Z,6.50
2022-11-05T13:54:33.286Z,6.13
2022-11-05T13:59:39.239Z,7.70
2022-11-05T14:04:34.304Z,6.20
2022-11-05T14:09:27.557Z,7.47
2022-11-05T14:14:21.939Z,8.63
2022-11-05T14:19:31.141Z,8.63
2022-11-05T14:24:38.622Z,6.97
2022-11-05T14:29:38.591Z,8.43
2022-11-05T14:34:47.015Z,7.90
2022-11-05T14:39:40.197Z,8.30
2022-11-05T14:44:34.487Z,7.50
2022-11-05T14:49:28.861Z,8.03
2022-11-05T14:54:24.442Z,7.90
2022-11-05T14:59:33.985Z,7.50
2022-11-05T15:04:28.361Z,9.57
2022-11-05T15:09:25.360Z,8.60
2022-11-05T15:14:21.064Z,12.77
2022-11-05T15:19:17.693Z,10.50
2022-11-05T15:24:11.753Z,10.40
2022-11-05T15:29:15.112Z,9.60
2022-11-05T15:34:16.287Z,10.60
2022-11-05T15:39:29.380Z,10.30
2022-11-05T15:44:30.475Z,11.20
2022-11-05T15:49:23.091Z,12.30
2022-11-05T15:54:30.366Z,11.37
2022-11-05T15:59:24.445Z,13.10
2022-11-05T16:04:20.457Z,13.50
2022-11-05T16:09:22.030Z,11.43
2022-11-05T16:14:15.988Z,11.53
2022-11-05T16:19:23.485Z,12.00
2022-11-05T16:24:29.224Z,11.50
2022-11-05T16:29:26.675Z,12.83
2022-11-05T16:34:25.903Z,13.30
2022-11-05T16:39:18.495Z,15.93
2022-11-05T16:44:12.468Z,16.97
2022-11-05T16:49:05.256Z,17.53
2022-11-05T16:53:57.811Z,16.60
2022-11-05T16:58:50.666Z,15.63
2022-11-05T17:03:45.055Z,15.30
2022-11-05T17:08:37.749Z,15.43
2022-11-05T17:13:30.633Z,15.40
2022-11-05T17:18:23.419Z,15.30
2022-11-05T17:23:18.384Z,16.47
2022-11-05T17:28:11.685Z,15.10
2022-11-05T17:33:05.088Z,16.90
2022-11-05T17:37:57.669Z,16.30
2022-11-05T17:42:52.510Z,16.40
2022-11-05T17:47:45.161Z,16.50
2022-11-05T17:52:37.992Z,15.90
2022-11-05T17:57:30.628Z,16.67
2022-11-05T18:02:27.760Z,17.60
2022-11-05T18:07:20.462Z,18.70
2022-11-05T18:12:13.048Z,19.30
2022-11-05T18:17:05.603Z,21.30
2022-11-05T18:21:59.533Z,19.50
2022-11-05T18:26:52.112Z,19.10
2022-11-05T18:31:44.661Z,20.40
2022-11-05T18:36:37.451Z,19.43
2022-11-05T18:41:31.580Z,18.87
2022-11-05T18:46:56.015Z,17.70
2022-11-05T18:51:36.691Z,15.23
2022-11-05T18:56:29.289Z,15.60
2022-11-05T19:01:26.480Z,17.80
2022-11-05T19:06:19.146Z,17.80
2022-11-05T19:11:12.427Z,16.67
2022-11-05T19:16:07.196Z,15.00
2022-11-05T19:21:01.212Z,15.00
2022-11-05T19:25:53.830Z,14.87
2022-11-05T19:30:46.462Z,13.73
2022-11-05T19:35:41.506Z,14.93
2022-11-05T19:40:37.204Z,14.13
2022-11-05T19:45:44.012Z,15.83
2022-11-05T19:50:41.375Z,17.67
2022-11-05T19:55:35.376Z,16.33
2022-11-05T20:00:28.019Z,16.30
2022-11-05T20:05:20.685Z,15.27
2022-11-05T20:10:13.355Z,11.73
2022-11-05T20:15:08.158Z,13.20
2022-11-05T20:20:01.155Z,12.30
2022-11-05T20:24:53.887Z,11.93
2022-11-05T20:29:46.497Z,12.07
2022-11-05T20:34:40.586Z,11.50
2022-11-05T20:39:33.151Z,12.57
2022-11-05T20:44:25.730Z,12.30
2022-11-05T20:49:24.053Z,12.57
2022-11-05T20:54:19.199Z,11.23
2022-11-05T20:59:11.787Z,12.40
2022-11-05T21:04:04.948Z,14.40
2022-11-05T21:08:57.508Z,38.20
2022-11-05T21:13:51.446Z,17.97
2022-11-05T21:18:44.050Z,12.00
2022-11-05T21:23:36.793Z,11.33
2022-11-05T21:28:29.539Z,12.30
2022-11-05T21:33:23.495Z,16.50
2022-11-05T21:38:17.236Z,12.93
2022-11-05T21:43:10.207Z,36.60
2022-11-05T21:48:02.816Z,18.87
2022-11-05T21:53:14.232Z,13.90
2022-11-05T21:58:30.295Z,34.93
2022-11-05T22:03:22.919Z,46.70
2022-11-05T22:08:16.843Z,35.80
2022-11-05T22:13:09.412Z,28.20
2022-11-05T22:18:02.138Z,10.13
2022-11-05T22:22:55.109Z,10.17
2022-11-05T22:27:49.134Z,8.87
2022-11-05T22:32:41.859Z,9.03
2022-11-05T22:37:34.459Z,9.40
2022-11-05T22:42:27.256Z,8.87
2022-11-05T22:47:21.278Z,9.93
2022-11-05T22:52:13.940Z,10.10
2022-11-05T22:57:06.763Z,9.93
2022-11-05T23:02:01.880Z,9.20
2022-11-05T23:07:16.801Z,7.47
2022-11-05T23:12:19.171Z,7.77
2022-11-05T23:17:29.516Z,11.70
2022-11-05T23:22:41.945Z,14.50
2022-11-05T23:27:35.990Z,14.50
2022-11-05T23:32:31.146Z,9.43
2022-11-05T23:37:43.535Z,9.97
2022-11-05T23:42:53.732Z,9.30
2022-11-05T23:48:04.052Z,7.70
2022-11-05T23:52:58.091Z,7.17
2022-11-05T23:57:50.960Z,6.90
